Time;durP1;ratioP1;P1;durP2;ratioP2;P2;SDS_P1;SDS_P2;PMS_P1;PMS_P2;Temp;Humidity;BMP_temperature;BMP_pressure;BME280_temperature;BME280_humidity;BME280_pressure;Samples;Min_cycle;Max_cycle;Signal;HPM_P1;HPM_P2
2023/03/08 00:01:40;;;;;;;26.33;20.23;;;;;;;;;;5027822;28;20510;-77
2023/03/08 00:04:06;;;;;;;24.02;16.17;;;;;;;;;;5028050;28;20033;-77
2023/03/08 00:06:32;;;;;;;20.23;12.80;;;;;;;;;;5026833;28;20482;-77
2023/03/08 00:08:59;;;;;;;20.33;13.98;;;;;;;;;;5020586;28;20045;-77
2023/03/08 00:11:26;;;;;;;41.03;21.45;;;;;;;;;;5028365;28;20553;-77
2023/03/08 00:13:52;;;;;;;29.90;16.67;;;;;;;;;;5018677;28;20088;-77
2023/03/08 00:16:18;;;;;;;32.00;19.20;;;;;;;;;;5021429;28;20104;-77
2023/03/08 00:18:44;;;;;;;31.02;18.58;;;;;;;;;;5021918;28;20042;-77
2023/03/08 00:21:12;;;;;;;29.67;16.25;;;;;;;;;;5025753;28;20042;-77
2023/03/08 00:23:38;;;;;;;29.08;17.05;;;;;;;;;;5034208;28;20033;-77
2023/03/08 00:26:04;;;;;;;20.73;13.43;;;;;;;;;;5027230;28;20029;-77
2023/03/08 00:28:30;;;;;;;24.35;15.32;;;;;;;;;;5026577;28;20040;-77
2023/03/08 00:30:58;;;;;;;16.75;11.82;;;;;;;;;;5019563;28;20026;-77
2023/03/08 00:33:24;;;;;;;16.58;10.32;;;;;;;;;;5025049;28;20036;-77
2023/03/08 00:36:09;;;;;;;18.00;10.73;;;;;;;;;;5025828;28;20113;-77
2023/03/08 00:38:35;;;;;;;15.05;9.18;;;;;;;;;;5028015;28;20043;-77
2023/03/08 00:41:02;;;;;;;11.82;8.07;;;;;;;;;;5029167;28;20809;-77
2023/03/08 00:43:28;;;;;;;34.88;20.33;;;;;;;;;;5026512;28;20839;-77
2023/03/08 00:45:54;;;;;;;33.80;19.60;;;;;;;;;;5019430;28;20041;-77
2023/03/08 00:48:20;;;;;;;28.00;15.90;;;;;;;;;;5023918;28;20112;-77
2023/03/08 00:50:46;;;;;;;19.15;12.50;;;;;;;;;;5029208;28;20076;-77
2023/03/08 00:53:12;;;;;;;16.38;10.27;;;;;;;;;;5029978;28;20582;-77
2023/03/08 00:55:38;;;;;;;14.77;9.73;;;;;;;;;;5030121;28;20066;-77
2023/03/08 00:58:04;;;;;;;11.90;8.70;;;;;;;;;;5027389;28;20033;-77
2023/03/08 01:00:31;;;;;;;12.30;8.13;;;;;;;;;;5027930;28;20049;-77
2023/03/08 01:02:57;;;;;;;11.48;7.40;;;;;;;;;;5032796;28;20040;-77
2023/03/08 01:05:23;;;;;;;14.63;9.73;;;;;;;;;;5021384;28;20050;-77
2023/03/08 01:07:49;;;;;;;20.20;12.88;;;;;;;;;;5032807;28;20064;-77
2023/03/08 01:10:16;;;;;;;23.90;14.27;;;;;;;;;;5032471;28;20033;-77
2023/03/08 01:12:42;;;;;;;19.67;12.23;;;;;;;;;;5032587;28;20040;-77
2023/03/08 01:15:08;;;;;;;20.00;10.45;;;;;;;;;;5032122;28;20037;-78
2023/03/08 01:17:34;;;;;;;17.92;10.02;;;;;;;;;;5024347;28;20033;-77
2023/03/08 01:20:00;;;;;;;16.13;9.65;;;;;;;;;;5028804;28;20198;-77
2023/03/08 01:22:26;;;;;;;15.70;9.70;;;;;;;;;;5032233;28;20036;-77
2023/03/08 01:24:52;;;;;;;20.98;11.30;;;;;;;;;;5028840;28;21025;-77
2023/03/08 01:27:18;;;;;;;20.13;11.27;;;;;;;;;;5024442;28;20084;-77
2023/03/08 01:29:44;;;;;;;16.88;10.75;;;;;;;;;;5035839;28;20424;-77
2023/03/08 01:32:10;;;;;;;15.55;8.50;;;;;;;;;;5031977;28;20037;-77
2023/03/08 01:34:37;;;;;;;11.93;6.63;;;;;;;;;;5029804;28;20037;-77
2023/03/08 01:37:03;;;;;;;9.63;5.85;;;;;;;;;;5025942;28;20034;-77
2023/03/08 01:39:29;;;;;;;10.82;6.30;;;;;;;;;;5030870;28;20037;-78
2023/03/08 01:41:55;;;;;;;11.75;7.18;;;;;;;;;;5027250;28;20043;-77
2023/03/08 01:44:21;;;;;;;9.15;5.97;;;;;;;;;;5020914;28;20034;-77
2023/03/08 01:46:48;;;;;;;11.13;5.93;;;;;;;;;;5032091;28;20029;-77
2023/03/08 01:49:14;;;;;;;11.15;6.72;;;;;;;;;;5023278;28;20113;-77
2023/03/08 01:51:49;;;;;;;9.52;5.57;;;;;;;;;;5018612;28;20120;-77
2023/03/08 01:54:17;;;;;;;10.10;5.53;;;;;;;;;;5031231;28;20124;-77
2023/03/08 01:56:44;;;;;;;16.40;8.25;;;;;;;;;;5030288;28;20056;-77
2023/03/08 01:59:10;;;;;;;15.77;7.88;;;;;;;;;;5028642;28;20663;-77
2023/03/08 02:01:36;;;;;;;12.38;7.85;;;;;;;;;;5031008;28;20049;-77
2023/03/08 02:04:02;;;;;;;10.90;6.43;;;;;;;;;;5021009;28;20045;-77
2023/03/08 02:06:28;;;;;;;12.80;7.72;;;;;;;;;;5028052;28;20029;-77
2023/03/08 02:08:54;;;;;;;14.68;8.07;;;;;;;;;;5032354;28;20492;-77
2023/03/08 02:11:21;;;;;;;11.65;7.05;;;;;;;;;;5031892;28;20593;-77
2023/03/08 02:13:48;;;;;;;12.07;8.18;;;;;;;;;;5031815;28;20483;-77
2023/03/08 02:16:15;;;;;;;10.63;7.40;;;;;;;;;;5028032;28;20048;-77
2023/03/08 02:18:51;;;;;;;14.02;8.93;;;;;;;;;;5023399;28;20041;-77
2023/03/08 02:21:17;;;;;;;13.70;9.07;;;;;;;;;;5027647;28;20034;-78
2023/03/08 02:23:43;;;;;;;15.55;9.70;;;;;;;;;;5031188;28;20025;-77
2023/03/08 02:26:09;;;;;;;18.17;12.05;;;;;;;;;;5031552;22;20553;-78
2023/03/08 02:28:38;;;;;;;18.15;11.73;;;;;;;;;;5008528;28;20526;-76
2023/03/08 02:31:14;;;;;;;15.38;9.70;;;;;;;;;;5012645;28;20475;-77
2023/03/08 02:33:41;;;;;;;14.60;10.82;;;;;;;;;;5021546;28;20612;-78
2023/03/08 02:36:08;;;;;;;16.23;10.05;;;;;;;;;;5000415;28;20029;-77
2023/03/08 02:38:40;;;;;;;15.80;9.30;;;;;;;;;;5024408;28;20643;-77
2023/03/08 02:41:06;;;;;;;13.70;9.23;;;;;;;;;;5023282;28;20057;-77
2023/03/08 02:43:32;;;;;;;12.50;8.57;;;;;;;;;;5031152;28;20029;-77
2023/03/08 02:45:58;;;;;;;13.00;8.18;;;;;;;;;;5031080;28;20029;-76
2023/03/08 02:48:24;;;;;;;14.75;8.65;;;;;;;;;;5030620;28;20030;-77
2023/03/08 02:50:50;;;;;;;15.05;9.30;;;;;;;;;;5031135;28;20034;-77
2023/03/08 02:53:16;;;;;;;10.55;6.43;;;;;;;;;;5030433;28;20053;-77
2023/03/08 02:55:42;;;;;;;15.98;8.27;;;;;;;;;;5024944;28;20057;-77
2023/03/08 02:58:09;;;;;;;13.77;8.95;;;;;;;;;;5029965;28;20064;-77
2023/03/08 03:00:36;;;;;;;13.68;9.43;;;;;;;;;;5031312;28;20026;-77
2023/03/08 03:03:02;;;;;;;17.83;12.00;;;;;;;;;;5003782;28;20038;-77
2023/03/08 03:05:28;;;;;;;17.75;11.30;;;;;;;;;;5023998;28;20045;-77
2023/03/08 03:07:55;;;;;;;17.88;11.75;;;;;;;;;;5030979;28;20038;-77
2023/03/08 03:10:21;;;;;;;18.70;11.60;;;;;;;;;;5030409;28;20079;-77
2023/03/08 03:12:47;;;;;;;16.80;10.50;;;;;;;;;;5005864;28;20429;-77
2023/03/08 03:15:13;;;;;;;16.95;11.20;;;;;;;;;;5029341;28;20038;-77
2023/03/08 03:17:39;;;;;;;17.55;11.45;;;;;;;;;;5028309;28;20033;-77
2023/03/08 03:20:08;;;;;;;18.13;12.25;;;;;;;;;;5010118;28;20121;-77
2023/03/08 03:22:34;;;;;;;15.93;10.57;;;;;;;;;;5024381;28;20517;-77
2023/03/08 03:25:00;;;;;;;19.27;12.70;;;;;;;;;;5026584;28;20073;-76
2023/03/08 03:27:26;;;;;;;18.40;11.55;;;;;;;;;;5029250;28;20057;-77
2023/03/08 03:29:52;;;;;;;13.80;10.20;;;;;;;;;;5008561;28;20459;-77
2023/03/08 03:32:18;;;;;;;18.83;11.10;;;;;;;;;;5027177;28;20037;-77
2023/03/08 03:34:44;;;;;;;15.90;11.40;;;;;;;;;;5023155;28;20033;-77
2023/03/08 03:37:10;;;;;;;13.90;9.38;;;;;;;;;;5028379;28;20553;-77
2023/03/08 03:39:37;;;;;;;14.05;9.45;;;;;;;;;;5028755;28;20037;-76
2023/03/08 03:42:03;;;;;;;15.98;9.85;;;;;;;;;;5024671;28;20025;-76
2023/03/08 03:44:29;;;;;;;19.02;12.63;;;;;;;;;;5032293;28;20121;-77
2023/03/08 03:46:56;;;;;;;12.98;9.23;;;;;;;;;;5025473;28;20100;-77
2023/03/08 03:49:22;;;;;;;17.23;12.05;;;;;;;;;;5026664;28;20366;-77
2023/03/08 03:51:48;;;;;;;13.32;8.88;;;;;;;;;;5022228;28;20032;-77
2023/03/08 03:54:14;;;;;;;13.10;8.38;;;;;;;;;;5029066;28;20180;-77
2023/03/08 03:56:40;;;;;;;14.00;9.15;;;;;;;;;;5019616;28;20034;-77
2023/03/08 03:59:06;;;;;;;14.52;9.38;;;;;;;;;;5026846;28;20045;-77
2023/03/08 04:01:32;;;;;;;13.93;8.95;;;;;;;;;;5023413;28;20048;-77
2023/03/08 04:03:58;;;;;;;16.13;10.27;;;;;;;;;;5025244;28;20080;-77
2023/03/08 04:06:24;;;;;;;11.70;7.47;;;;;;;;;;5028941;28;20091;-76
2023/03/08 04:09:03;;;;;;;11.80;7.35;;;;;;;;;;5028839;28;20491;-77
2023/03/08 04:11:32;;;;;;;10.75;6.88;;;;;;;;;;5029578;28;20033;-77
2023/03/08 04:13:58;;;;;;;11.90;7.53;;;;;;;;;;5037900;28;20087;-77
2023/03/08 04:16:26;;;;;;;11.00;6.88;;;;;;;;;;5009740;28;20037;-77
2023/03/08 04:18:54;;;;;;;10.15;6.95;;;;;;;;;;4994651;28;20088;-77
2023/03/08 04:21:20;;;;;;;11.20;7.50;;;;;;;;;;5020519;28;20050;-77
2023/03/08 04:23:46;;;;;;;10.23;6.35;;;;;;;;;;5024355;28;20031;-77
2023/03/08 04:26:12;;;;;;;11.43;6.78;;;;;;;;;;4995430;28;20136;-77
2023/03/08 04:28:39;;;;;;;12.15;6.38;;;;;;;;;;5028470;28;20575;-77
2023/03/08 04:31:14;;;;;;;14.93;8.18;;;;;;;;;;5011294;28;20060;-77
2023/03/08 04:33:40;;;;;;;11.25;7.10;;;;;;;;;;5020246;28;20152;-78
2023/03/08 04:36:06;;;;;;;10.43;6.68;;;;;;;;;;5015468;28;20124;-78
2023/03/08 04:38:32;;;;;;;9.82;6.28;;;;;;;;;;5011557;28;20033;-77
2023/03/08 04:41:04;;;;;;;11.27;5.75;;;;;;;;;;5012162;28;20087;-77
2023/03/08 04:43:30;;;;;;;9.88;5.30;;;;;;;;;;5008214;28;20057;-77
2023/03/08 04:45:56;;;;;;;15.77;7.40;;;;;;;;;;5017675;28;20042;-77
2023/03/08 04:48:22;;;;;;;16.65;7.55;;;;;;;;;;5010665;28;20033;-77
2023/03/08 04:50:52;;;;;;;14.40;7.20;;;;;;;;;;5008539;28;20065;-77
2023/03/08 04:53:18;;;;;;;12.85;7.05;;;;;;;;;;5012512;28;20029;-77
2023/03/08 04:55:44;;;;;;;10.68;6.18;;;;;;;;;;5009847;28;20475;-77
2023/03/08 04:58:10;;;;;;;10.60;6.40;;;;;;;;;;5013693;28;20692;-77
2023/03/08 05:00:36;;;;;;;10.95;5.65;;;;;;;;;;5027450;28;20125;-77
2023/03/08 05:03:02;;;;;;;9.43;5.40;;;;;;;;;;5000506;28;20493;-77
2023/03/08 05:05:28;;;;;;;10.07;6.38;;;;;;;;;;5006599;28;20072;-77
2023/03/08 05:07:55;;;;;;;11.73;6.72;;;;;;;;;;5009495;28;20166;-77
2023/03/08 05:10:21;;;;;;;10.45;5.80;;;;;;;;;;5003532;28;20044;-77
2023/03/08 05:12:47;;;;;;;11.80;7.28;;;;;;;;;;5027976;28;20057;-78
2023/03/08 05:15:13;;;;;;;11.90;6.03;;;;;;;;;;5010443;28;20046;-78
2023/03/08 05:17:39;;;;;;;10.60;5.20;;;;;;;;;;5005558;28;20041;-78
2023/03/08 05:20:05;;;;;;;11.07;6.25;;;;;;;;;;5010296;28;20045;-77
2023/03/08 05:22:31;;;;;;;9.20;6.32;;;;;;;;;;5006994;28;20129;-77
2023/03/08 05:24:57;;;;;;;10.88;5.85;;;;;;;;;;5010992;28;20156;-77
2023/03/08 05:27:43;;;;;;;9.88;6.07;;;;;;;;;;5038570;23;20057;-77
2023/03/08 05:30:36;;;;;;;11.35;6.72;;;;;;;;;;5047411;28;20052;-77
2023/03/08 05:33:15;;;;;;;13.32;7.00;;;;;;;;;;5074294;28;20066;-77
2023/03/08 05:35:44;;;;;;;11.15;7.60;;;;;;;;;;5072634;28;20123;-77
2023/03/08 05:38:10;;;;;;;12.55;8.13;;;;;;;;;;5058515;28;20044;-77
2023/03/08 05:40:37;;;;;;;9.65;7.05;;;;;;;;;;5068067;28;20424;-77
2023/03/08 05:43:03;;;;;;;14.13;7.78;;;;;;;;;;5063804;28;20051;-77
2023/03/08 05:45:48;;;;;;;;;;;;;;;;;;;;;
2023/03/08 05:48:26;;;;;;;13.00;7.28;;;;;;;;;;5066144;28;20032;-77
2023/03/08 05:51:26;;;;;;;11.68;7.75;;;;;;;;;;5055573;28;20033;-77
2023/03/08 05:56:59;;;;;;;11.73;7.80;;;;;;;;;;5063293;28;20055;-78
2023/03/08 05:59:48;;;;;;;12.68;7.60;;;;;;;;;;5086144;28;20051;-77
2023/03/08 06:02:34;;;;;;;12.73;7.70;;;;;;;;;;5087428;28;20171;-77
2023/03/08 06:05:01;;;;;;;11.05;5.78;;;;;;;;;;5054639;28;20043;-77
2023/03/08 06:07:27;;;;;;;7.50;4.13;;;;;;;;;;5087250;28;20059;-77
2023/03/08 06:10:06;;;;;;;10.00;4.68;;;;;;;;;;5084056;28;20041;-77
2023/03/08 06:12:44;;;;;;;9.50;5.15;;;;;;;;;;5069680;28;20168;-77
2023/03/08 06:15:42;;;;;;;12.20;7.10;;;;;;;;;;5065043;28;20397;-77
2023/03/08 06:21:06;;;;;;;9.13;4.88;;;;;;;;;;5063740;22;20041;-77
2023/03/08 06:23:33;;;;;;;10.63;4.65;;;;;;;;;;5029289;28;20069;-77
2023/03/08 06:25:59;;;;;;;12.35;6.63;;;;;;;;;;5028338;28;20041;-77
2023/03/08 06:28:26;;;;;;;10.88;6.53;;;;;;;;;;5039775;28;20065;-77
2023/03/08 06:30:53;;;;;;;14.80;7.10;;;;;;;;;;5033733;28;20076;-77
2023/03/08 06:33:20;;;;;;;31.08;14.75;;;;;;;;;;5006362;28;20127;-78
2023/03/08 06:35:59;;;;;;;39.85;17.38;;;;;;;;;;5026743;28;20037;-77
2023/03/08 06:38:26;;;;;;;22.67;10.68;;;;;;;;;;5036579;28;20699;-78
2023/03/08 06:40:52;;;;;;;25.17;10.35;;;;;;;;;;5039480;28;20471;-78
2023/03/08 06:43:18;;;;;;;23.92;11.77;;;;;;;;;;5031437;28;20030;-77
2023/03/08 06:45:44;;;;;;;24.00;12.27;;;;;;;;;;5029077;28;20091;-76
2023/03/08 06:48:10;;;;;;;16.08;6.95;;;;;;;;;;5030185;28;20519;-76
2023/03/08 06:50:36;;;;;;;11.38;5.97;;;;;;;;;;5041809;28;20034;-76
2023/03/08 06:53:02;;;;;;;10.57;5.82;;;;;;;;;;5028127;28;20040;-77
2023/03/08 06:55:28;;;;;;;14.45;6.78;;;;;;;;;;5026172;28;20041;-76
2023/03/08 06:57:54;;;;;;;20.55;11.82;;;;;;;;;;5030818;28;20548;-77
2023/03/08 07:00:21;;;;;;;28.95;14.95;;;;;;;;;;5033855;28;20112;-77
2023/03/08 07:02:47;;;;;;;16.92;9.05;;;;;;;;;;5032970;28;20355;-77
2023/03/08 07:05:17;;;;;;;15.50;8.27;;;;;;;;;;5031819;28;20394;-77
2023/03/08 07:07:43;;;;;;;13.05;6.60;;;;;;;;;;5027526;28;20036;-77
2023/03/08 07:10:10;;;;;;;13.63;7.85;;;;;;;;;;5029945;28;20026;-76
2023/03/08 07:12:39;;;;;;;12.57;7.60;;;;;;;;;;5029488;28;20056;-76
2023/03/08 07:15:08;;;;;;;29.48;12.25;;;;;;;;;;5027822;28;20080;-77
2023/03/08 07:17:34;;;;;;;15.90;7.90;;;;;;;;;;5018006;28;20399;-77
2023/03/08 07:20:00;;;;;;;20.10;10.10;;;;;;;;;;5031899;28;20391;-77
2023/03/08 07:22:26;;;;;;;28.42;13.55;;;;;;;;;;5040735;28;20099;-77
2023/03/08 07:24:52;;;;;;;22.38;9.70;;;;;;;;;;5031113;28;20045;-77
2023/03/08 07:27:18;;;;;;;14.55;7.03;;;;;;;;;;5037709;28;20348;-77
2023/03/08 07:29:44;;;;;;;18.77;9.90;;;;;;;;;;5030271;28;20112;-77
2023/03/08 07:32:10;;;;;;;16.50;8.18;;;;;;;;;;5038999;28;20084;-77
2023/03/08 07:34:36;;;;;;;22.80;10.00;;;;;;;;;;5037184;28;20068;-77
2023/03/08 07:37:02;;;;;;;16.90;7.45;;;;;;;;;;5036195;28;20043;-77
2023/03/08 07:39:28;;;;;;;42.13;18.05;;;;;;;;;;5032371;28;20039;-77
2023/03/08 07:41:54;;;;;;;23.80;10.23;;;;;;;;;;5036061;28;20529;-77
2023/03/08 07:44:21;;;;;;;51.63;22.55;;;;;;;;;;5031374;28;20030;-77
2023/03/08 07:46:47;;;;;;;32.75;13.95;;;;;;;;;;5037405;28;20482;-77
2023/03/08 07:49:13;;;;;;;20.65;10.65;;;;;;;;;;5024590;28;20053;-76
2023/03/08 07:51:38;;;;;;;21.67;10.23;;;;;;;;;;5033755;28;20072;-77
2023/03/08 07:54:05;;;;;;;19.67;9.48;;;;;;;;;;5026825;28;20958;-77
2023/03/08 07:56:30;;;;;;;20.35;9.02;;;;;;;;;;5033345;28;20033;-77
2023/03/08 07:58:56;;;;;;;25.17;12.10;;;;;;;;;;5027184;28;20041;-77
2023/03/08 08:01:23;;;;;;;18.05;8.60;;;;;;;;;;5028608;28;20542;-78
2023/03/08 08:03:49;;;;;;;16.95;7.80;;;;;;;;;;5030117;28;20071;-78
2023/03/08 08:06:15;;;;;;;11.45;6.38;;;;;;;;;;5028258;28;20907;-77
2023/03/08 08:08:41;;;;;;;17.58;9.70;;;;;;;;;;5032040;28;20088;-77
2023/03/08 08:11:13;;;;;;;17.88;8.73;;;;;;;;;;5029590;28;20128;-77
2023/03/08 08:13:39;;;;;;;12.73;6.93;;;;;;;;;;5027139;28;20086;-77
2023/03/08 08:16:08;;;;;;;18.35;9.30;;;;;;;;;;5031211;28;20063;-75
2023/03/08 08:18:35;;;;;;;11.80;5.45;;;;;;;;;;5029212;28;20407;-77
2023/03/08 08:21:05;;;;;;;14.20;6.55;;;;;;;;;;5029767;28;20416;-77
2023/03/08 08:23:31;;;;;;;9.60;5.45;;;;;;;;;;5029186;28;20132;-77
2023/03/08 08:25:58;;;;;;;14.82;9.27;;;;;;;;;;5027862;28;20794;-77
2023/03/08 08:28:25;;;;;;;21.15;13.10;;;;;;;;;;5028542;28;20034;-77
2023/03/08 08:31:02;;;;;;;21.00;12.60;;;;;;;;;;5010702;28;20029;-77
2023/03/08 08:33:29;;;;;;;18.45;9.15;;;;;;;;;;5027586;28;20026;-77
2023/03/08 08:35:55;;;;;;;22.55;10.40;;;;;;;;;;5026650;28;20116;-77
2023/03/08 08:38:21;;;;;;;17.23;8.80;;;;;;;;;;5017304;28;20043;-77
2023/03/08 08:40:47;;;;;;;15.07;7.43;;;;;;;;;;5028518;28;20402;-77
2023/03/08 08:43:14;;;;;;;11.02;5.57;;;;;;;;;;5043325;28;20079;-76
2023/03/08 08:45:47;;;;;;;11.60;5.95;;;;;;;;;;5029303;28;20368;-77
2023/03/08 08:48:13;;;;;;;12.70;6.30;;;;;;;;;;5035750;28;20037;-77
2023/03/08 08:50:40;;;;;;;17.35;7.28;;;;;;;;;;5033100;28;20100;-77
2023/03/08 08:53:06;;;;;;;14.98;7.45;;;;;;;;;;5021830;28;20108;-77
2023/03/08 08:55:32;;;;;;;13.63;6.75;;;;;;;;;;5030652;28;20045;-77
2023/03/08 08:57:58;;;;;;;10.45;5.22;;;;;;;;;;5035524;28;20037;-77
2023/03/08 09:00:25;;;;;;;8.98;4.13;;;;;;;;;;5028864;28;20029;-76
2023/03/08 09:02:50;;;;;;;13.30;5.47;;;;;;;;;;5024867;28;20033;-77
2023/03/08 09:05:16;;;;;;;8.43;4.90;;;;;;;;;;5031133;28;20039;-77
2023/03/08 09:07:42;;;;;;;10.57;3.90;;;;;;;;;;5020377;28;20026;-77
2023/03/08 09:10:09;;;;;;;10.48;6.57;;;;;;;;;;5026682;28;20030;-77
2023/03/08 09:12:35;;;;;;;14.25;8.02;;;;;;;;;;5043655;28;20044;-77
2023/03/08 09:15:01;;;;;;;16.75;8.07;;;;;;;;;;5032649;28;20037;-77
2023/03/08 09:17:27;;;;;;;12.20;5.68;;;;;;;;;;5041670;28;20040;-77
2023/03/08 09:19:53;;;;;;;13.30;6.00;;;;;;;;;;5032657;28;20045;-77
2023/03/08 09:22:19;;;;;;;11.57;5.78;;;;;;;;;;5044500;28;20045;-77
2023/03/08 09:24:45;;;;;;;14.20;5.82;;;;;;;;;;5042465;28;20506;-76
2023/03/08 09:27:11;;;;;;;10.48;4.57;;;;;;;;;;5036286;28;20025;-77
2023/03/08 09:29:37;;;;;;;9.75;4.32;;;;;;;;;;5034028;28;20036;-76
2023/03/08 09:32:03;;;;;;;10.80;4.13;;;;;;;;;;5029985;28;20025;-77
2023/03/08 09:34:29;;;;;;;15.00;4.80;;;;;;;;;;5035400;28;20040;-77
2023/03/08 09:36:55;;;;;;;9.45;3.17;;;;;;;;;;5027486;28;20348;-77
2023/03/08 09:39:22;;;;;;;8.95;3.80;;;;;;;;;;5032474;28;20479;-76
2023/03/08 09:41:49;;;;;;;11.68;5.25;;;;;;;;;;5028208;28;20034;-77
2023/03/08 09:44:42;;;;;;;7.18;3.58;;;;;;;;;;5022374;28;20120;-77
2023/03/08 09:47:21;;;;;;;11.20;2.83;;;;;;;;;;5027559;28;20036;-77
2023/03/08 09:49:50;;;;;;;8.95;3.85;;;;;;;;;;5039264;28;20645;-77
2023/03/08 09:52:20;;;;;;;10.95;4.47;;;;;;;;;;5038481;28;20044;-77
2023/03/08 09:54:46;;;;;;;11.73;4.95;;;;;;;;;;5031351;28;20037;-77
2023/03/08 09:57:16;;;;;;;10.43;5.85;;;;;;;;;;5032954;28;20112;-77
2023/03/08 09:59:49;;;;;;;10.77;5.03;;;;;;;;;;5005701;28;20080;-77
2023/03/08 10:02:21;;;;;;;11.55;5.32;;;;;;;;;;5031014;28;20132;-77
2023/03/08 10:04:47;;;;;;;8.40;4.47;;;;;;;;;;5028368;28;20065;-77
2023/03/08 10:07:15;;;;;;;8.80;4.47;;;;;;;;;;5038680;28;20060;-77
2023/03/08 10:09:49;;;;;;;8.65;3.67;;;;;;;;;;5032147;28;20120;-77
2023/03/08 10:12:20;;;;;;;10.75;4.45;;;;;;;;;;5031551;28;20598;-76
2023/03/08 10:14:52;;;;;;;11.45;4.70;;;;;;;;;;5031204;28;20116;-77
2023/03/08 10:17:20;;;;;;;11.57;6.00;;;;;;;;;;5022432;28;20030;-76
2023/03/08 10:19:51;;;;;;;9.10;4.20;;;;;;;;;;5026126;28;20272;-77
2023/03/08 10:22:26;;;;;;;10.13;3.78;;;;;;;;;;5038485;28;20533;-77
2023/03/08 10:24:55;;;;;;;16.08;4.78;;;;;;;;;;5028231;28;20554;-77
2023/03/08 10:27:22;;;;;;;8.25;4.70;;;;;;;;;;5031358;28;20036;-76
2023/03/08 10:29:49;;;;;;;8.00;3.78;;;;;;;;;;5038311;28;20025;-76
2023/03/08 10:32:15;;;;;;;10.75;3.72;;;;;;;;;;5037329;28;20081;-77
2023/03/08 10:34:41;;;;;;;9.95;3.88;;;;;;;;;;5033583;28;20033;-76
2023/03/08 10:37:08;;;;;;;6.28;2.22;;;;;;;;;;5033398;28;20096;-77
2023/03/08 10:39:49;;;;;;;10.43;3.17;;;;;;;;;;5017358;28;20374;-76
2023/03/08 10:42:16;;;;;;;10.02;5.80;;;;;;;;;;5033445;28;20033;-77
2023/03/08 10:44:44;;;;;;;11.30;4.80;;;;;;;;;;5034638;28;20036;-77
2023/03/08 10:47:16;;;;;;;12.77;5.22;;;;;;;;;;5033850;28;20040;-77
2023/03/08 10:49:43;;;;;;;10.20;3.53;;;;;;;;;;5027443;28;20491;-77
2023/03/08 10:52:26;;;;;;;9.93;3.05;;;;;;;;;;5028582;28;20029;-77
2023/03/08 10:55:12;;;;;;;7.38;3.05;;;;;;;;;;5034647;28;20035;-77
2023/03/08 10:57:39;;;;;;;9.40;3.33;;;;;;;;;;5027710;28;20066;-77
2023/03/08 11:00:20;;;;;;;7.25;2.95;;;;;;;;;;5028308;28;20052;-77
2023/03/08 11:02:48;;;;;;;4.65;1.88;;;;;;;;;;5033229;28;20101;-77
2023/03/08 11:05:22;;;;;;;8.68;3.08;;;;;;;;;;5035744;28;20040;-76
2023/03/08 11:07:52;;;;;;;4.57;1.38;;;;;;;;;;5022068;28;20036;-77
2023/03/08 11:10:20;;;;;;;3.22;1.40;;;;;;;;;;5032703;28;20059;-77
2023/03/08 11:12:46;;;;;;;8.63;3.05;;;;;;;;;;5030227;28;20091;-76
2023/03/08 11:15:13;;;;;;;4.95;2.22;;;;;;;;;;5039517;28;20450;-76
2023/03/08 11:17:41;;;;;;;8.25;2.00;;;;;;;;;;5026338;28;20080;-77
2023/03/08 11:20:23;;;;;;;3.85;1.08;;;;;;;;;;5017581;28;20033;-76
2023/03/08 11:22:55;;;;;;;8.40;3.55;;;;;;;;;;5025201;28;20049;-77
2023/03/08 11:25:31;;;;;;;7.75;3.13;;;;;;;;;;5034728;28;20041;-77
2023/03/08 11:28:00;;;;;;;9.32;4.38;;;;;;;;;;5029012;28;20049;-77
2023/03/08 11:30:29;;;;;;;8.25;3.78;;;;;;;;;;5032015;28;20025;-77
2023/03/08 11:32:55;;;;;;;9.48;4.53;;;;;;;;;;5027541;28;20050;-77
2023/03/08 11:35:25;;;;;;;8.77;4.07;;;;;;;;;;5027453;28;20080;-77
2023/03/08 11:38:23;;;;;;;7.38;3.08;;;;;;;;;;5034847;28;20033;-77
2023/03/08 11:41:04;;;;;;;5.85;2.70;;;;;;;;;;4992218;28;20057;-77
2023/03/08 11:43:49;;;;;;;6.80;2.83;;;;;;;;;;5028245;28;20472;-77
2023/03/08 11:46:15;;;;;;;7.85;2.58;;;;;;;;;;5033114;28;20037;-77
2023/03/08 11:49:04;;;;;;;0.90;0.30;;;;;;;;;;5030389;28;20044;-77
2023/03/08 11:51:30;;;;;;;4.97;0.43;;;;;;;;;;5006954;28;20391;-76
2023/03/08 11:54:10;;;;;;;2.00;0.82;;;;;;;;;;5028353;28;20045;-76
2023/03/08 11:56:45;;;;;;;1.25;0.40;;;;;;;;;;5028282;28;20030;-77
2023/03/08 11:59:24;;;;;;;1.23;0.30;;;;;;;;;;5027117;28;20059;-76
2023/03/08 12:02:11;;;;;;;1.30;0.40;;;;;;;;;;5032831;28;20509;-76
2023/03/08 12:04:40;;;;;;;10.45;2.58;;;;;;;;;;5026446;28;20172;-77
2023/03/08 12:07:09;;;;;;;9.27;3.10;;;;;;;;;;5032123;28;20670;-77
2023/03/08 12:09:47;;;;;;;6.68;2.47;;;;;;;;;;5036115;28;20129;-77
2023/03/08 12:12:21;;;;;;;1.65;0.60;;;;;;;;;;5037757;28;20043;-77
2023/03/08 12:14:51;;;;;;;3.30;0.98;;;;;;;;;;5027224;28;20570;-77
2023/03/08 12:17:20;;;;;;;2.75;0.90;;;;;;;;;;5022382;28;20037;-77
2023/03/08 12:19:48;;;;;;;3.03;0.98;;;;;;;;;;5027696;28;20037;-77
2023/03/08 12:22:29;;;;;;;7.10;1.77;;;;;;;;;;5017787;28;20076;-77
2023/03/08 12:25:14;;;;;;;6.40;1.80;;;;;;;;;;5007215;28;20107;-77
2023/03/08 12:27:49;;;;;;;7.70;2.08;;;;;;;;;;5005031;28;20081;-77
2023/03/08 12:30:19;;;;;;;8.32;1.63;;;;;;;;;;5011437;28;20037;-76
2023/03/08 12:32:46;;;;;;;4.32;1.40;;;;;;;;;;5009536;28;20377;-77
2023/03/08 12:35:24;;;;;;;14.98;5.72;;;;;;;;;;5015240;28;20045;-77
2023/03/08 12:37:56;;;;;;;12.65;4.80;;;;;;;;;;5007882;28;20038;-76
2023/03/08 12:40:27;;;;;;;9.65;3.80;;;;;;;;;;5010403;28;20125;-77
2023/03/08 12:43:04;;;;;;;6.00;1.70;;;;;;;;;;5013807;28;20038;-77
2023/03/08 12:45:30;;;;;;;5.57;1.90;;;;;;;;;;5015630;28;20034;-77
2023/03/08 12:48:05;;;;;;;4.93;1.98;;;;;;;;;;5014505;28;20045;-77
2023/03/08 12:50:34;;;;;;;3.08;0.90;;;;;;;;;;5002083;28;20042;-77
2023/03/08 12:53:01;;;;;;;2.45;0.70;;;;;;;;;;5009227;28;20037;-77
2023/03/08 12:55:30;;;;;;;2.40;0.80;;;;;;;;;;5014985;28;20057;-77
2023/03/08 12:57:57;;;;;;;5.35;1.80;;;;;;;;;;5016926;28;20116;-77
2023/03/08 13:00:25;;;;;;;12.95;3.20;;;;;;;;;;5013649;28;20038;-77
2023/03/08 13:03:09;;;;;;;5.57;2.13;;;;;;;;;;5012127;28;20550;-76
2023/03/08 13:05:37;;;;;;;11.15;2.45;;;;;;;;;;5006943;28;20076;-77
2023/03/08 13:08:16;;;;;;;9.10;3.05;;;;;;;;;;5015065;28;20038;-77
2023/03/08 13:10:48;;;;;;;11.88;3.38;;;;;;;;;;5009202;28;20030;-77
2023/03/08 13:13:21;;;;;;;8.68;3.20;;;;;;;;;;5007548;28;20030;-77
2023/03/08 13:15:47;;;;;;;15.25;6.72;;;;;;;;;;5015871;28;20037;-77
2023/03/08 13:18:17;;;;;;;14.98;8.07;;;;;;;;;;5013021;28;20048;-77
2023/03/08 13:20:57;;;;;;;12.40;6.40;;;;;;;;;;5010222;28;20095;-77
2023/03/08 13:23:29;;;;;;;10.90;4.80;;;;;;;;;;5014120;28;20045;-77
2023/03/08 13:25:55;;;;;;;;;;;;;;;;;;5003989;28;20029;-77
2023/03/08 13:28:22;;;;;;;12.95;2.92;;;;;;;;;;5005303;28;19936;-77
2023/03/08 13:30:53;;;;;;;6.55;2.65;;;;;;;;;;5013058;28;20030;-77
2023/03/08 13:33:38;;;;;;;3.05;0.93;;;;;;;;;;5009282;28;20495;-77
2023/03/08 13:36:05;;;;;;;6.13;1.35;;;;;;;;;;5005103;28;20033;-77
2023/03/08 13:38:32;;;;;;;4.13;1.60;;;;;;;;;;5007780;28;20052;-77
2023/03/08 13:40:59;;;;;;;9.77;4.32;;;;;;;;;;5011965;28;20164;-77
2023/03/08 13:43:29;;;;;;;12.25;4.57;;;;;;;;;;5013617;28;20052;-77
2023/03/08 13:46:00;;;;;;;8.38;1.98;;;;;;;;;;5013821;28;20383;-76
2023/03/08 13:48:29;;;;;;;6.93;2.40;;;;;;;;;;5016721;28;20488;-77
2023/03/08 13:50:55;;;;;;;11.25;4.28;;;;;;;;;;5012465;28;20026;-77
2023/03/08 13:53:24;;;;;;;9.65;4.43;;;;;;;;;;5011980;28;20774;-77
2023/03/08 13:55:51;;;;;;;6.10;1.80;;;;;;;;;;5002999;28;20109;-77
2023/03/08 13:58:23;;;;;;;14.25;3.80;;;;;;;;;;5006323;28;20092;-76
2023/03/08 14:00:57;;;;;;;12.10;4.97;;;;;;;;;;5009852;28;20038;-76
2023/03/08 14:03:23;;;;;;;6.50;2.90;;;;;;;;;;5006779;28;20496;-77
2023/03/08 14:05:49;;;;;;;8.18;2.03;;;;;;;;;;5013215;28;20057;-76
2023/03/08 14:08:19;;;;;;;7.40;2.60;;;;;;;;;;5012060;28;20041;-76
2023/03/08 14:10:47;;;;;;;6.03;1.95;;;;;;;;;;5013256;28;20480;-77
2023/03/08 14:13:18;;;;;;;3.33;1.15;;;;;;;;;;5014322;28;20045;-76
2023/03/08 14:15:49;;;;;;;3.92;1.02;;;;;;;;;;5007520;28;20033;-76
2023/03/08 14:18:22;;;;;;;8.50;2.72;;;;;;;;;;5015342;28;20503;-77
2023/03/08 14:21:14;;;;;;;6.43;2.22;;;;;;;;;;5015978;28;20582;-77
2023/03/08 14:23:54;;;;;;;9.75;4.32;;;;;;;;;;5015902;28;20061;-76
2023/03/08 14:26:23;;;;;;;9.27;5.07;;;;;;;;;;5012732;28;20030;-77
2023/03/08 14:28:49;;;;;;;22.08;5.60;;;;;;;;;;5016897;28;20082;-77
2023/03/08 14:31:41;;;;;;;10.32;3.67;;;;;;;;;;5011887;28;20077;-77
2023/03/08 14:34:27;;;;;;;9.82;4.40;;;;;;;;;;4989280;28;20046;-77
2023/03/08 14:36:56;;;;;;;6.88;2.70;;;;;;;;;;5009851;28;20118;-77
2023/03/08 14:39:23;;;;;;;7.05;2.08;;;;;;;;;;5008947;28;20068;-76
2023/03/08 14:41:49;;;;;;;6.40;2.42;;;;;;;;;;5009284;28;20041;-76
2023/03/08 14:44:22;;;;;;;11.18;4.40;;;;;;;;;;5016308;28;20088;-76
2023/03/08 14:46:56;;;;;;;21.27;9.82;;;;;;;;;;5012473;28;20077;-76
2023/03/08 14:49:23;;;;;;;11.05;4.75;;;;;;;;;;5010879;28;20033;-76
2023/03/08 14:51:49;;;;;;;12.05;6.50;;;;;;;;;;5019899;28;20040;-76